createdAt,value
2022-09-17T00:00:28.331Z,12.75
2022-09-17T00:02:57.232Z,12.78
2022-09-17T00:05:25.078Z,12.81
2022-09-17T00:07:53.520Z,12.84
2022-09-17T00:10:23.131Z,12.82
2022-09-17T00:12:51.362Z,12.81
2022-09-17T00:15:19.277Z,12.80
2022-09-17T00:17:46.805Z,12.78
2022-09-17T00:20:15.674Z,12.78
2022-09-17T00:22:43.212Z,12.71
2022-09-17T00:25:10.740Z,12.75
2022-09-17T00:27:38.299Z,12.75
2022-09-17T00:30:06.986Z,12.75
2022-09-17T00:32:34.574Z,12.76
2022-09-17T00:35:02.085Z,12.75
2022-09-17T00:37:30.981Z,12.74
2022-09-17T00:39:58.628Z,12.67
2022-09-17T00:42:26.299Z,12.69
2022-09-17T00:44:55.020Z,12.71
2022-09-17T00:47:28.126Z,12.67
2022-09-17T00:50:00.418Z,12.70
2022-09-17T00:52:34.074Z,12.67
2022-09-17T00:55:08.858Z,12.67
2022-09-17T00:57:36.761Z,12.72
2022-09-17T01:00:07.810Z,12.75
2022-09-17T01:02:35.591Z,12.76
2022-09-17T01:05:03.261Z,12.68
2022-09-17T01:07:54.562Z,12.61
2022-09-17T01:10:40.202Z,12.59
2022-09-17T01:13:20.681Z,12.54
2022-09-17T01:15:55.960Z,12.53
2022-09-17T01:18:36.672Z,12.55
2022-09-17T01:21:34.789Z,12.53
2022-09-17T01:24:44.669Z,12.55
2022-09-17T01:27:56.094Z,12.52
2022-09-17T01:30:53.754Z,12.54
2022-09-17T01:33:30.150Z,12.57
2022-09-17T01:36:11.113Z,12.63
2022-09-17T01:38:47.002Z,12.61
2022-09-17T01:41:23.654Z,12.60
2022-09-17T01:43:57.037Z,12.62
2022-09-17T01:46:32.399Z,12.58
2022-09-17T01:49:03.586Z,12.55
2022-09-17T01:51:37.195Z,12.50
2022-09-17T01:54:08.780Z,12.43
2022-09-17T01:56:41.366Z,12.35
2022-09-17T01:59:16.383Z,12.38
2022-09-17T02:01:51.575Z,12.31
2022-09-17T02:04:24.129Z,12.26
2022-09-17T02:06:58.186Z,12.13
2022-09-17T02:09:30.964Z,12.10
2022-09-17T02:12:03.947Z,12.05
2022-09-17T02:14:37.069Z,11.98
2022-09-17T02:17:11.404Z,11.94
2022-09-17T02:19:41.093Z,11.88
2022-09-17T02:22:19.646Z,11.83
2022-09-17T02:24:53.667Z,11.80
2022-09-17T02:27:29.146Z,11.75
2022-09-17T02:29:56.750Z,11.75
2022-09-17T02:32:25.809Z,11.73
2022-09-17T02:34:53.402Z,11.70
2022-09-17T02:37:20.976Z,11.66
2022-09-17T02:39:48.613Z,11.61
2022-09-17T02:42:23.631Z,11.59
2022-09-17T02:45:01.242Z,11.54
2022-09-17T02:48:07.971Z,11.54
2022-09-17T02:50:47.588Z,11.51
2022-09-17T02:53:28.610Z,11.43
2022-09-17T02:56:03.394Z,11.41
2022-09-17T02:58:35.102Z,11.37
2022-09-17T03:01:08.967Z,11.33
2022-09-17T03:03:41.611Z,11.29
2022-09-17T03:06:09.227Z,11.28
2022-09-17T03:08:40.063Z,11.24
2022-09-17T03:11:09.128Z,11.23
2022-09-17T03:13:37.227Z,11.20
2022-09-17T03:16:05.253Z,11.20
2022-09-17T03:18:33.355Z,11.20
2022-09-17T03:21:02.322Z,11.15
2022-09-17T03:23:29.902Z,11.18
2022-09-17T03:25:57.473Z,11.15
2022-09-17T03:28:26.406Z,11.15
2022-09-17T03:30:54.782Z,11.16
2022-09-17T03:33:22.968Z,11.11
2022-09-17T03:35:50.551Z,11.10
2022-09-17T03:38:19.438Z,11.09
2022-09-17T03:40:57.998Z,11.09
2022-09-17T03:43:25.601Z,11.08
2022-09-17T03:45:53.130Z,11.09
2022-09-17T03:48:21.208Z,11.04
2022-09-17T03:50:48.774Z,11.00
2022-09-17T03:53:16.436Z,10.97
2022-09-17T03:55:45.512Z,10.91
2022-09-17T03:58:13.190Z,10.87
2022-09-17T04:00:40.755Z,10.80
2022-09-17T04:03:08.390Z,10.74
2022-09-17T04:05:35.976Z,10.68
2022-09-17T04:08:03.731Z,10.64
2022-09-17T04:10:31.241Z,10.59
2022-09-17T04:13:00.121Z,10.55
2022-09-17T04:15:27.670Z,10.50
2022-09-17T04:17:57.650Z,10.48
2022-09-17T04:20:25.705Z,10.44
2022-09-17T04:22:53.353Z,10.39
2022-09-17T04:25:21.135Z,10.38
2022-09-17T04:27:48.690Z,10.37
2022-09-17T04:30:18.130Z,10.36
2022-09-17T04:32:46.634Z,10.36
2022-09-17T04:35:14.771Z,10.37
2022-09-17T04:37:42.345Z,10.38
2022-09-17T04:40:11.123Z,10.40
2022-09-17T04:42:39.027Z,10.41
2022-09-17T04:45:07.562Z,10.43
2022-09-17T04:47:39.550Z,10.44
2022-09-17T04:50:07.743Z,10.46
2022-09-17T04:52:35.289Z,10.48
2022-09-17T04:55:02.818Z,10.50
2022-09-17T04:57:30.326Z,10.50
2022-09-17T04:59:57.841Z,10.52
2022-09-17T05:02:25.519Z,10.55
2022-09-17T05:04:55.100Z,10.59
2022-09-17T05:07:22.966Z,10.61
2022-09-17T05:09:50.530Z,10.63
2022-09-17T05:12:18.050Z,10.66
2022-09-17T05:14:45.578Z,10.68
2022-09-17T05:17:13.174Z,10.71
2022-09-17T05:19:40.849Z,10.74
2022-09-17T05:22:09.713Z,10.81
2022-09-17T05:24:39.277Z,10.84
2022-09-17T05:27:06.987Z,10.89
2022-09-17T05:29:34.525Z,10.96
2022-09-17T05:32:02.573Z,11.03
2022-09-17T05:34:30.086Z,11.09
2022-09-17T05:36:57.649Z,11.14
2022-09-17T05:39:26.562Z,11.21
2022-09-17T05:41:54.196Z,11.27
2022-09-17T05:44:22.140Z,11.30
2022-09-17T05:46:49.734Z,11.30
2022-09-17T05:49:17.325Z,11.37
2022-09-17T05:51:45.035Z,11.54
2022-09-17T05:54:12.606Z,11.72
2022-09-17T05:56:41.508Z,11.87
2022-09-17T05:59:09.026Z,12.36
2022-09-17T06:01:36.613Z,13.04
2022-09-17T06:04:04.577Z,13.65
2022-09-17T06:06:32.726Z,14.30
2022-09-17T06:09:00.980Z,14.86
2022-09-17T06:11:28.589Z,15.49
2022-09-17T06:13:57.521Z,15.99
2022-09-17T06:16:25.604Z,16.44
2022-09-17T06:18:53.685Z,16.85
2022-09-17T06:21:22.864Z,17.29
2022-09-17T06:23:50.777Z,17.67
2022-09-17T06:26:18.962Z,18.02
2022-09-17T06:28:46.721Z,18.34
2022-09-17T06:31:15.751Z,18.43
2022-09-17T06:33:43.322Z,18.63
2022-09-17T06:36:14.628Z,18.87
2022-09-17T06:38:43.062Z,18.85
2022-09-17T06:41:10.608Z,19.06
2022-09-17T06:43:38.134Z,19.14
2022-09-17T06:46:08.987Z,19.25
2022-09-17T06:48:39.145Z,19.61
2022-09-17T06:51:08.606Z,19.85
2022-09-17T06:53:37.818Z,19.93
2022-09-17T06:56:07.164Z,19.86
2022-09-17T06:58:37.024Z,19.64
2022-09-17T07:03:32.135Z,19.69
2022-09-17T07:06:01.245Z,19.52
2022-09-17T07:08:28.793Z,19.03
2022-09-17T07:10:57.207Z,18.46
2022-09-17T07:13:25.371Z,18.08
2022-09-17T07:15:54.833Z,18.01
2022-09-17T07:18:23.341Z,17.64
2022-09-17T07:20:54.992Z,17.41
2022-09-17T07:23:24.941Z,17.23
2022-09-17T07:25:53.434Z,16.98
2022-09-17T07:28:21.073Z,16.65
2022-09-17T07:30:48.788Z,16.49
2022-09-17T07:33:17.270Z,16.40
2022-09-17T07:35:44.797Z,16.35
2022-09-17T07:38:12.675Z,16.32
2022-09-17T07:40:41.886Z,16.27
2022-09-17T07:43:09.990Z,16.22
2022-09-17T07:45:37.875Z,16.18
2022-09-17T07:48:05.567Z,16.23
2022-09-17T07:50:33.362Z,16.49
2022-09-17T07:53:00.930Z,16.73
2022-09-17T07:55:28.475Z,16.76
2022-09-17T07:57:57.426Z,16.79
2022-09-17T08:00:25.298Z,16.86
2022-09-17T08:02:56.170Z,17.00
2022-09-17T08:05:24.603Z,16.94
2022-09-17T08:07:52.402Z,16.92
2022-09-17T08:10:21.527Z,16.96
2022-09-17T08:12:49.541Z,16.92
2022-09-17T08:15:19.753Z,16.82
2022-09-17T08:17:47.766Z,16.73
2022-09-17T08:20:16.567Z,16.78
2022-09-17T08:22:49.281Z,16.86
2022-09-17T08:25:17.850Z,16.65
2022-09-17T08:27:45.735Z,16.69
2022-09-17T08:30:13.409Z,16.89
2022-09-17T08:32:42.297Z,16.94
2022-09-17T08:35:11.597Z,16.94
2022-09-17T08:37:39.128Z,17.15
2022-09-17T08:40:07.748Z,17.61
2022-09-17T08:42:42.568Z,17.72
2022-09-17T08:45:18.941Z,17.83
2022-09-17T08:47:49.167Z,18.36
2022-09-17T08:50:28.853Z,18.37
2022-09-17T08:53:16.191Z,18.12
2022-09-17T08:55:47.042Z,17.81
2022-09-17T08:58:30.581Z,17.30
2022-09-17T09:01:08.710Z,17.35
2022-09-17T09:03:52.073Z,17.27
2022-09-17T09:06:25.429Z,17.32
2022-09-17T09:08:58.827Z,17.49
2022-09-17T09:11:30.967Z,17.50
2022-09-17T09:14:05.438Z,17.94
2022-09-17T09:16:35.129Z,18.28
2022-09-17T09:19:15.747Z,18.73
2022-09-17T09:21:53.958Z,19.20
2022-09-17T09:24:26.099Z,19.14
2022-09-17T09:27:02.597Z,18.71
2022-09-17T09:29:43.079Z,18.43
2022-09-17T09:32:22.399Z,18.34
2022-09-17T09:34:52.389Z,18.19
2022-09-17T09:37:24.805Z,18.17
2022-09-17T09:39:54.875Z,18.12
2022-09-17T09:42:30.210Z,17.96
2022-09-17T09:45:04.988Z,18.22
2022-09-17T09:47:54.553Z,18.48
2022-09-17T09:51:01.952Z,18.64
2022-09-17T09:53:33.118Z,18.92
2022-09-17T09:56:11.853Z,19.12
2022-09-17T09:58:40.653Z,18.96
2022-09-17T10:01:13.902Z,18.32
2022-09-17T10:03:43.942Z,17.18
2022-09-17T10:06:14.214Z,16.35
2022-09-17T10:08:43.689Z,15.72
2022-09-17T10:11:21.934Z,15.22
2022-09-17T10:13:49.989Z,14.82
2022-09-17T10:16:19.416Z,14.57
2022-09-17T10:18:47.881Z,14.41
2022-09-17T10:21:24.086Z,14.37
2022-09-17T10:23:51.983Z,14.43
2022-09-17T10:26:25.521Z,14.48
2022-09-17T10:28:56.045Z,14.59
2022-09-17T10:31:24.210Z,14.66
2022-09-17T10:33:54.230Z,14.73
2022-09-17T10:39:30.894Z,14.86
2022-09-17T10:41:59.977Z,14.94
2022-09-17T10:44:29.116Z,14.88
2022-09-17T10:47:04.052Z,14.91
2022-09-17T10:49:40.089Z,14.95
2022-09-17T10:52:11.898Z,14.96
2022-09-17T10:55:08.281Z,14.99
2022-09-17T10:58:12.351Z,15.04
2022-09-17T11:01:01.237Z,15.07
2022-09-17T11:04:09.170Z,15.13
2022-09-17T11:07:00.305Z,15.27
2022-09-17T11:09:40.299Z,15.29
2022-09-17T11:12:27.065Z,15.14
2022-09-17T11:15:02.689Z,15.26
2022-09-17T11:17:50.107Z,15.30
2022-09-17T11:20:33.489Z,15.34
2022-09-17T11:23:15.498Z,15.25
2022-09-17T11:25:50.228Z,15.28
2022-09-17T11:28:43.038Z,15.40
2022-09-17T11:31:24.419Z,15.35
2022-09-17T11:34:23.691Z,15.28
2022-09-17T11:36:58.211Z,15.13
2022-09-17T11:39:34.085Z,14.95
2022-09-17T11:42:07.570Z,14.79
2022-09-17T11:44:41.990Z,14.75
2022-09-17T11:47:15.765Z,14.74
2022-09-17T11:49:48.541Z,14.62
2022-09-17T11:52:21.757Z,14.47
2022-09-17T11:54:54.042Z,14.26
2022-09-17T11:57:26.446Z,13.86
2022-09-17T12:00:01.552Z,13.76
2022-09-17T12:02:43.645Z,13.78
2022-09-17T12:05:18.138Z,13.75
2022-09-17T12:07:51.399Z,13.86
2022-09-17T12:10:44.807Z,13.90
2022-09-17T12:13:20.622Z,13.73
2022-09-17T12:15:53.597Z,13.89
2022-09-17T12:18:35.858Z,13.82
2022-09-17T12:21:07.931Z,13.62
2022-09-17T12:23:41.191Z,13.63
2022-09-17T12:26:21.231Z,13.41
2022-09-17T12:28:58.844Z,13.34
2022-09-17T12:31:37.672Z,13.30
2022-09-17T12:34:23.639Z,13.37
2022-09-17T12:36:58.874Z,13.40
2022-09-17T12:39:54.756Z,13.35
2022-09-17T12:42:36.865Z,13.32
2022-09-17T12:45:31.329Z,13.28
2022-09-17T12:48:30.762Z,13.27
2022-09-17T12:51:12.116Z,13.26
2022-09-17T12:53:46.374Z,13.24
2022-09-17T12:56:27.809Z,13.29
2022-09-17T12:59:06.856Z,13.19
2022-09-17T13:01:41.789Z,13.12
2022-09-17T13:04:43.547Z,12.93
2022-09-17T13:07:38.961Z,12.91
2022-09-17T13:10:27.246Z,12.97
2022-09-17T13:13:03.897Z,13.06
2022-09-17T13:15:40.232Z,13.03
2022-09-17T13:18:27.078Z,12.84
2022-09-17T13:21:14.151Z,12.80
2022-09-17T13:23:44.719Z,12.68
2022-09-17T13:26:17.171Z,12.64
2022-09-17T13:29:00.315Z,12.59
2022-09-17T13:31:49.944Z,12.47
2022-09-17T13:34:32.862Z,12.35
2022-09-17T13:37:03.045Z,12.30
2022-09-17T13:39:43.358Z,12.23
2022-09-17T13:42:24.172Z,12.25
2022-09-17T13:45:03.227Z,12.31
2022-09-17T13:47:32.342Z,12.33
2022-09-17T13:50:04.485Z,12.29
2022-09-17T13:52:40.098Z,12.28
2022-09-17T13:55:08.847Z,12.28
2022-09-17T13:57:49.759Z,12.43
2022-09-17T14:00:48.698Z,12.56
2022-09-17T14:03:54.472Z,12.72
2022-09-17T14:06:53.661Z,12.84
2022-09-17T14:09:52.454Z,12.94
2022-09-17T14:12:56.032Z,13.02
2022-09-17T14:15:54.726Z,13.07
2022-09-17T14:18:43.579Z,13.16
2022-09-17T14:21:19.906Z,13.23
2022-09-17T14:23:57.944Z,13.33
2022-09-17T14:26:58.622Z,13.44
2022-09-17T14:29:43.585Z,13.60
2022-09-17T14:32:16.949Z,13.79
2022-09-17T14:34:44.864Z,14.00
2022-09-17T14:37:16.026Z,14.29
2022-09-17T14:39:43.795Z,14.54
2022-09-17T14:42:19.831Z,14.77
2022-09-17T14:44:59.089Z,15.08
2022-09-17T14:47:27.474Z,15.33
2022-09-17T14:49:55.437Z,15.62
2022-09-17T14:52:28.545Z,15.85
2022-09-17T14:55:21.354Z,16.07
2022-09-17T14:57:53.638Z,16.01
2022-09-17T15:00:24.206Z,15.87
2022-09-17T15:02:55.500Z,15.82
2022-09-17T15:05:27.039Z,15.69
2022-09-17T15:08:13.804Z,15.54
2022-09-17T15:10:48.952Z,15.33
2022-09-17T15:13:21.720Z,14.98
2022-09-17T15:15:55.197Z,14.79
2022-09-17T15:18:30.458Z,14.56
2022-09-17T15:21:00.874Z,14.48
2022-09-17T15:23:31.886Z,14.32
2022-09-17T15:26:01.201Z,14.34
2022-09-17T15:28:34.994Z,14.33
2022-09-17T15:31:02.845Z,14.20
2022-09-17T15:33:32.487Z,14.18
2022-09-17T15:36:10.791Z,14.06
2022-09-17T15:38:39.117Z,13.92
2022-09-17T15:41:28.998Z,13.96
2022-09-17T15:44:28.402Z,14.00
2022-09-17T15:46:56.720Z,13.98
2022-09-17T15:49:34.786Z,13.87
2022-09-17T15:52:30.404Z,13.84
2022-09-17T15:54:58.087Z,13.89
2022-09-17T15:57:27.341Z,13.84
2022-09-17T15:59:56.791Z,13.79
2022-09-17T16:02:29.910Z,13.71
2022-09-17T16:05:44.998Z,13.62
2022-09-17T16:08:20.363Z,13.55
2022-09-17T16:10:48.241Z,13.52
2022-09-17T16:13:15.759Z,13.45
2022-09-17T16:15:44.845Z,13.38
2022-09-17T16:18:14.750Z,13.34
2022-09-17T16:20:42.760Z,13.32
2022-09-17T16:23:10.556Z,13.25
2022-09-17T16:25:40.231Z,13.16
2022-09-17T16:28:12.418Z,13.19
2022-09-17T16:30:44.312Z,13.16
2022-09-17T16:33:14.403Z,13.17
2022-09-17T16:35:42.654Z,13.14
2022-09-17T16:38:12.797Z,13.14
2022-09-17T16:40:47.511Z,13.08
2022-09-17T16:43:15.243Z,13.10
2022-09-17T16:45:42.813Z,13.09
2022-09-17T16:48:10.719Z,13.13
2022-09-17T16:50:42.927Z,13.09
2022-09-17T16:53:10.453Z,13.13
2022-09-17T16:55:37.989Z,13.12
2022-09-17T16:58:05.524Z,13.08
2022-09-17T17:00:33.114Z,13.04
2022-09-17T17:03:00.719Z,13.10
2022-09-17T17:05:28.862Z,13.06
2022-09-17T17:07:59.678Z,13.01
2022-09-17T17:10:28.799Z,12.98
2022-09-17T17:12:57.427Z,12.99
2022-09-17T17:15:25.249Z,13.00
2022-09-17T17:17:52.846Z,12.97
2022-09-17T17:20:21.173Z,12.96
2022-09-17T17:22:50.593Z,12.95
2022-09-17T17:25:19.794Z,12.90
2022-09-17T17:27:47.456Z,12.85
2022-09-17T17:30:17.250Z,12.87
2022-09-17T17:32:49.821Z,12.82
2022-09-17T17:35:17.433Z,12.71
2022-09-17T17:37:44.958Z,12.58
2022-09-17T17:40:12.593Z,12.53
2022-09-17T17:42:44.065Z,12.47
2022-09-17T17:45:12.227Z,12.46
2022-09-17T17:47:39.837Z,12.43
2022-09-17T17:50:08.566Z,12.41
2022-09-17T17:52:36.412Z,12.33
2022-09-17T17:55:04.212Z,12.31
2022-09-17T17:57:31.757Z,12.26
2022-09-17T18:00:00.634Z,12.25
2022-09-17T18:02:28.342Z,12.15
2022-09-17T18:04:56.005Z,12.16
2022-09-17T18:07:23.513Z,12.11
2022-09-17T18:09:51.049Z,12.10
2022-09-17T18:12:18.561Z,12.03
2022-09-17T18:14:46.107Z,12.01
2022-09-17T18:17:14.978Z,11.98
2022-09-17T18:19:42.529Z,11.94
2022-09-17T18:22:10.737Z,11.94
2022-09-17T18:24:38.263Z,11.91
2022-09-17T18:27:06.057Z,11.91
2022-09-17T18:29:33.577Z,11.87
2022-09-17T18:32:01.126Z,11.87
2022-09-17T18:34:30.034Z,11.81
2022-09-17T18:36:57.618Z,11.80
2022-09-17T18:42:12.678Z,11.79
2022-09-17T18:44:40.194Z,11.75
2022-09-17T18:47:08.073Z,11.80
2022-09-17T18:49:36.928Z,11.82
2022-09-17T18:52:04.605Z,11.82
2022-09-17T18:54:32.142Z,11.77
2022-09-17T18:56:59.681Z,11.78
2022-09-17T18:59:27.217Z,11.74
2022-09-17T19:01:54.816Z,11.72
2022-09-17T19:04:22.850Z,11.72
2022-09-17T19:06:51.714Z,11.63
2022-09-17T19:09:19.798Z,11.63
2022-09-17T19:11:47.363Z,11.66
2022-09-17T19:14:14.949Z,11.68
2022-09-17T19:16:42.501Z,11.68
2022-09-17T19:19:10.042Z,11.68
2022-09-17T19:21:37.558Z,11.64
2022-09-17T19:24:06.790Z,11.62
2022-09-17T19:26:34.348Z,11.61
2022-09-17T19:29:02.006Z,11.56
2022-09-17T19:31:30.131Z,11.56
2022-09-17T19:33:59.509Z,11.48
2022-09-17T19:36:27.252Z,11.44
2022-09-17T19:38:55.514Z,11.41
2022-09-17T19:41:24.485Z,11.32
2022-09-17T19:43:53.004Z,11.30
2022-09-17T19:46:22.319Z,11.28
2022-09-17T19:48:51.605Z,11.24
2022-09-17T19:51:20.082Z,11.20
2022-09-17T19:53:47.640Z,11.15
2022-09-17T19:56:16.955Z,11.08
2022-09-17T19:58:46.061Z,11.06
2022-09-17T20:01:15.083Z,11.01
2022-09-17T20:03:44.821Z,10.99
2022-09-17T20:06:13.826Z,10.97
2022-09-17T20:08:47.074Z,11.06
2022-09-17T20:11:16.354Z,11.01
2022-09-17T20:13:44.323Z,11.00
2022-09-17T20:16:16.814Z,11.05
2022-09-17T20:18:44.755Z,11.02
2022-09-17T20:21:14.010Z,11.03
2022-09-17T20:23:41.613Z,11.10
2022-09-17T20:26:09.852Z,11.13
2022-09-17T20:28:37.403Z,11.06
2022-09-17T20:31:07.089Z,11.04
2022-09-17T20:33:36.059Z,10.98
2022-09-17T20:36:05.920Z,10.91
2022-09-17T20:41:22.486Z,10.92
2022-09-17T20:43:53.190Z,10.93
2022-09-17T20:46:27.554Z,10.89
2022-09-17T20:48:58.605Z,10.84
2022-09-17T20:51:28.003Z,10.82
2022-09-17T20:53:56.975Z,10.78
2022-09-17T20:56:26.778Z,10.78
2022-09-17T20:59:01.369Z,10.75
2022-09-17T21:01:32.632Z,10.74
2022-09-17T21:04:02.820Z,10.74
2022-09-17T21:06:32.246Z,10.79
2022-09-17T21:09:01.024Z,10.80
2022-09-17T21:11:29.868Z,10.80
2022-09-17T21:13:57.562Z,10.79
2022-09-17T21:16:25.618Z,10.81
2022-09-17T21:18:57.562Z,10.82
2022-09-17T21:21:27.025Z,10.79
2022-09-17T21:23:55.181Z,10.79
2022-09-17T21:26:24.812Z,10.78
2022-09-17T21:28:55.122Z,10.75
2022-09-17T21:31:28.403Z,10.76
2022-09-17T21:34:00.371Z,10.79
2022-09-17T21:36:30.958Z,10.83
2022-09-17T21:38:59.827Z,10.88
2022-09-17T21:41:27.898Z,10.88
2022-09-17T21:43:55.798Z,10.89
2022-09-17T21:46:25.249Z,10.94
2022-09-17T21:48:55.831Z,10.92
2022-09-17T21:51:25.310Z,10.87
2022-09-17T21:53:57.020Z,10.85
2022-09-17T21:56:25.157Z,10.85
2022-09-17T21:58:54.582Z,10.85
2022-09-17T22:01:25.924Z,10.83
2022-09-17T22:03:55.421Z,10.79
2022-09-17T22:06:24.790Z,10.78
2022-09-17T22:08:54.637Z,10.72
2022-09-17T22:11:24.515Z,10.76
2022-09-17T22:13:54.613Z,10.71
2022-09-17T22:16:23.507Z,10.79
2022-09-17T22:18:52.258Z,10.82
2022-09-17T22:21:22.386Z,10.83
2022-09-17T22:23:50.730Z,10.87
2022-09-17T22:26:21.732Z,10.91
2022-09-17T22:28:49.909Z,10.88
2022-09-17T22:31:18.196Z,10.87
2022-09-17T22:33:48.341Z,10.83
2022-09-17T22:36:17.909Z,10.81
2022-09-17T22:38:48.715Z,10.76
2022-09-17T22:41:18.205Z,10.75
2022-09-17T22:43:47.490Z,10.73
2022-09-17T22:46:17.797Z,10.71
2022-09-17T22:48:45.994Z,10.71
2022-09-17T22:51:14.814Z,10.73
2022-09-17T22:53:42.945Z,10.69
2022-09-17T22:56:13.818Z,10.70
2022-09-17T22:58:41.442Z,10.69
2022-09-17T23:01:12.405Z,10.69
2022-09-17T23:03:41.213Z,10.71
2022-09-17T23:06:11.109Z,10.70
2022-09-17T23:08:39.067Z,10.66
2022-09-17T23:11:09.167Z,10.62
2022-09-17T23:13:37.035Z,10.61
2022-09-17T23:16:06.347Z,10.56
2022-09-17T23:18:36.562Z,10.57
2022-09-17T23:21:06.947Z,10.55
2022-09-17T23:23:36.085Z,10.58
2022-09-17T23:26:05.118Z,10.55
2022-09-17T23:28:32.798Z,10.54
2022-09-17T23:31:06.757Z,10.57
2022-09-17T23:33:36.418Z,10.57
2022-09-17T23:36:06.318Z,10.52
2022-09-17T23:38:34.170Z,10.53
2022-09-17T23:41:09.614Z,10.54
2022-09-17T23:43:37.170Z,10.54
2022-09-17T23:46:05.053Z,10.60
2022-09-17T23:48:33.010Z,10.59
2022-09-17T23:51:02.342Z,10.54
2022-09-17T23:53:30.996Z,10.51
2022-09-17T23:56:00.245Z,10.56
2022-09-17T23:58:29.753Z,10.57
